Time;durP1;ratioP1;P1;durP2;ratioP2;P2;SDS_P1;SDS_P2;PMS_P1;PMS_P2;Temp;Humidity;BMP_temperature;BMP_pressure;BME280_temperature;BME280_humidity;BME280_pressure;Samples;Min_cycle;Max_cycle;Signal;HPM_P1;HPM_P2
2022/01/03 00:01:29;;;;;;;29.42;7.97;;;;;;;13.63;68.28;99819.91;4926476;28;121693;-92
2022/01/03 00:04:00;;;;;;;37.63;8.40;;;;;;;13.59;68.71;99811.13;4930656;28;121861;-92
2022/01/03 00:06:28;;;;;;;27.58;7.85;;;;;;;13.76;67.12;99825.00;4928049;28;119732;-93
2022/01/03 00:08:56;;;;;;;34.05;8.35;;;;;;;13.81;68.15;99827.03;4943246;28;120451;-91
2022/01/03 00:11:22;;;;;;;51.13;17.73;;;;;;;13.66;68.51;99809.91;4921830;28;122212;-90
2022/01/03 00:13:49;;;;;;;39.97;12.10;;;;;;;13.85;67.90;99827.56;4958900;28;119498;-93
2022/01/03 00:16:15;;;;;;;44.80;14.93;;;;;;;13.85;69.60;99832.31;4939410;28;121367;-90
2022/01/03 00:18:43;;;;;;;34.13;12.32;;;;;;;13.70;68.14;99805.66;4919675;28;123500;-92
2022/01/03 00:21:16;;;;;;;30.75;10.65;;;;;;;13.88;68.71;99834.84;4956243;28;120286;-91
2022/01/03 00:23:51;;;;;;;44.10;18.23;;;;;;;13.86;67.28;99823.56;4955860;28;122054;-91
2022/01/03 00:26:25;;;;;;;42.50;13.82;;;;;;;13.92;68.46;99835.34;4925439;28;120970;-90
2022/01/03 00:28:52;;;;;;;48.53;19.58;;;;;;;13.82;67.53;99818.28;4941902;28;121390;-91
2022/01/03 00:31:20;;;;;;;34.92;10.32;;;;;;;13.76;67.57;99820.25;4937507;28;122791;-91
2022/01/03 00:33:51;;;;;;;41.63;11.90;;;;;;;13.85;68.24;99819.28;4916019;28;120205;-91
2022/01/03 00:36:19;;;;;;;29.88;10.15;;;;;;;13.92;68.66;99829.09;4907139;28;121154;-90
2022/01/03 00:38:47;;;;;;;34.00;10.35;;;;;;;13.88;68.28;99815.53;4920364;28;123324;-91
2022/01/03 00:41:13;;;;;;;37.20;13.73;;;;;;;13.89;69.10;99811.53;4929186;28;119669;-90
2022/01/03 00:43:40;;;;;;;34.03;9.85;;;;;;;13.71;68.12;99793.41;4929746;28;123003;-92
2022/01/03 00:46:06;;;;;;;37.05;10.93;;;;;;;13.83;66.83;99808.00;4941736;28;119219;-90
2022/01/03 00:48:32;;;;;;;37.10;9.88;;;;;;;13.90;66.62;99815.81;4927206;28;122909;-91
2022/01/03 00:51:02;;;;;;;41.25;11.13;;;;;;;13.91;67.91;99806.28;4923868;28;123556;-91
2022/01/03 00:53:31;;;;;;;38.42;10.27;;;;;;;13.63;67.64;99780.59;4916113;28;120101;-90
2022/01/03 00:56:08;;;;;;;43.10;10.60;;;;;;;13.74;66.41;99794.44;4930216;28;120951;-91
2022/01/03 00:58:37;;;;;;;31.45;10.10;;;;;;;13.86;68.31;99812.53;4942378;28;122039;-91
2022/01/03 01:01:05;;;;;;;36.25;11.13;;;;;;;13.83;67.61;99802.50;4938023;28;120300;-91
2022/01/03 01:03:37;;;;;;;33.85;10.63;;;;;;;13.87;68.49;99814.03;4938910;28;120515;-92
2022/01/03 01:06:06;;;;;;;33.17;10.85;;;;;;;13.80;67.63;99803.47;4958111;28;119585;-91
2022/01/03 01:08:34;;;;;;;32.72;9.75;;;;;;;13.48;67.29;99751.19;4924889;28;120840;-90
2022/01/03 01:11:05;;;;;;;35.15;10.45;;;;;;;13.50;67.67;99748.72;4919579;28;121900;-91
2022/01/03 01:13:35;;;;;;;32.28;10.43;;;;;;;13.66;68.63;99794.13;4921328;28;120634;-90
2022/01/03 01:16:06;;;;;;;34.25;10.20;;;;;;;13.92;69.24;99820.81;4903917;28;121089;-90
2022/01/03 01:18:37;;;;;;;30.33;10.02;;;;;;;13.94;68.53;99812.81;4920600;28;121382;-91
2022/01/03 01:21:08;;;;;;;24.65;7.60;;;;;;;13.63;68.48;99772.31;4939636;28;119553;-91
2022/01/03 01:23:40;;;;;;;27.10;8.48;;;;;;;13.97;69.78;99815.34;4928795;28;122272;-90
2022/01/03 01:28:53;;;;;;;28.35;7.63;;;;;;;14.02;68.42;99831.16;4916192;28;122594;-89
2022/01/03 01:31:24;;;;;;;28.05;8.05;;;;;;;14.03;67.59;99835.44;4936770;28;122472;-92
2022/01/03 01:33:55;;;;;;;25.80;8.30;;;;;;;13.86;67.81;99818.03;4922273;28;120663;-91
2022/01/03 01:36:26;;;;;;;;;;;;;;;13.98;68.90;99836.16;4901917;28;122540;-92
2022/01/03 01:39:00;;;;;;;16.05;4.32;;;;;;;13.97;69.76;99820.88;4938186;28;121529;-92
2022/01/03 01:41:27;;;;;;;13.00;4.07;;;;;;;14.04;70.04;99831.41;4938339;28;121151;-91
2022/01/03 01:43:57;;;;;;;11.13;3.40;;;;;;;14.01;68.66;99834.41;4944908;28;121221;-91
2022/01/03 01:46:31;;;;;;;14.27;3.17;;;;;;;13.89;69.75;99808.78;4927233;28;120595;-90
2022/01/03 01:49:17;;;;;;;13.40;2.83;;;;;;;13.83;68.40;99810.75;4901688;28;120866;-90
2022/01/03 01:51:48;;;;;;;16.70;3.20;;;;;;;13.85;69.30;99816.53;4906834;28;121901;-92
2022/01/03 01:54:17;;;;;;;14.70;2.70;;;;;;;13.74;70.42;99789.69;4936943;28;119681;-90
2022/01/03 01:56:59;;;;;;;16.10;3.35;;;;;;;14.03;70.10;99838.19;4937502;28;120034;-90
2022/01/03 01:59:41;;;;;;;11.15;2.80;;;;;;;14.00;68.86;99835.66;4897779;28;122737;-91
2022/01/03 02:02:10;;;;;;;14.90;3.30;;;;;;;14.00;69.06;99839.19;4956083;28;120619;-91
2022/01/03 02:04:48;;;;;;;15.55;2.90;;;;;;;14.02;68.39;99846.94;4899733;28;122250;-91
2022/01/03 02:07:46;;;;;;;13.90;2.95;;;;;;;14.00;68.66;99841.19;4902752;28;123380;-91
2022/01/03 02:10:14;;;;;;;16.40;3.10;;;;;;;13.85;69.53;99816.53;4914926;28;119844;-92
2022/01/03 02:12:45;;;;;;;19.45;3.38;;;;;;;13.95;68.81;99834.38;4952741;28;123262;-91
2022/01/03 02:15:15;;;;;;;19.30;3.28;;;;;;;13.97;68.93;99840.16;4939973;28;121038;-92
2022/01/03 02:17:46;;;;;;;21.63;3.67;;;;;;;13.85;67.76;99822.06;4918045;28;121145;-91
2022/01/03 02:20:20;;;;;;;16.58;3.17;;;;;;;13.97;67.73;99845.69;4939916;28;123553;-90
2022/01/03 02:22:47;;;;;;;17.52;3.13;;;;;;;13.92;69.49;99842.88;4931453;28;120121;-91
2022/01/03 02:25:18;;;;;;;19.38;3.50;;;;;;;13.90;69.35;99848.88;4946332;28;120947;-91
2022/01/03 02:27:47;;;;;;;20.45;3.67;;;;;;;13.76;69.83;99811.25;4924784;28;121979;-91
2022/01/03 02:30:17;;;;;;;26.05;3.63;;;;;;;14.00;69.31;99850.19;4932679;28;120046;-91
2022/01/03 02:32:43;;;;;;;23.55;3.85;;;;;;;13.90;67.76;99843.38;4906600;28;121258;-90
2022/01/03 02:35:38;;;;;;;27.23;3.80;;;;;;;13.78;67.77;99823.28;4942502;28;121523;-90
2022/01/03 02:38:09;;;;;;;18.42;3.53;;;;;;;13.54;69.41;99784.31;4931301;28;120792;-91
2022/01/03 02:40:36;;;;;;;16.30;3.13;;;;;;;13.65;69.23;99805.66;4952081;28;120929;-91
2022/01/03 02:43:05;;;;;;;19.65;3.75;;;;;;;13.93;69.83;99845.13;4943036;28;119616;-90
2022/01/03 02:45:31;;;;;;;13.98;2.67;;;;;;;13.93;68.97;99839.63;4949308;28;119727;-91
2022/01/03 02:48:01;;;;;;;20.98;3.58;;;;;;;13.64;67.79;99807.66;4936081;28;121506;-91
2022/01/03 02:50:30;;;;;;;17.02;3.45;;;;;;;13.90;69.84;99845.38;4955907;28;119691;-91
2022/01/03 02:52:56;;;;;;;13.93;2.83;;;;;;;13.58;69.75;99795.84;4924319;28;121148;-92
2022/01/03 02:55:26;;;;;;;13.35;2.75;;;;;;;13.93;69.82;99845.13;4921918;28;118780;-91
2022/01/03 02:58:08;;;;;;;;;;;;;;;;;;;;;
2022/01/03 03:00:49;;;;;;;15.82;2.88;;;;;;;13.65;68.65;99798.13;4923150;28;122796;-90
2022/01/03 03:03:24;;;;;;;16.98;3.03;;;;;;;13.55;68.16;99782.31;4938280;28;119692;-91
2022/01/03 03:05:58;;;;;;;20.23;3.92;;;;;;;13.93;67.80;99838.88;4938713;28;120532;-90
2022/01/03 03:08:26;;;;;;;21.25;4.10;;;;;;;13.93;67.45;99836.09;4937892;28;122064;-91
2022/01/03 03:10:54;;;;;;;18.77;4.18;;;;;;;13.67;67.60;99803.16;4928412;28;119531;-91
2022/01/03 03:13:20;;;;;;;24.58;3.92;;;;;;;13.62;67.61;99798.38;4942351;28;121231;-92
2022/01/03 03:15:48;;;;;;;19.55;3.22;;;;;;;13.77;67.23;99830.03;4913684;28;119486;-92
2022/01/03 03:18:16;;;;;;;18.98;3.95;;;;;;;13.45;67.64;99796.25;4937261;28;119914;-93
2022/01/03 03:20:44;;;;;;;18.63;3.60;;;;;;;13.41;68.22;99787.47;4915073;28;121960;-91
2022/01/03 03:23:10;;;;;;;21.10;3.30;;;;;;;13.46;68.74;99791.50;4945417;28;119986;-91
2022/01/03 03:25:36;;;;;;;24.05;3.58;;;;;;;13.42;68.94;99768.94;4938547;28;120747;-91
2022/01/03 03:28:14;;;;;;;19.88;3.67;;;;;;;13.34;68.30;99756.88;4940116;28;123492;-91
2022/01/03 03:30:44;;;;;;;23.25;3.67;;;;;;;13.80;67.47;99828.28;4909470;28;119700;-91
2022/01/03 03:33:24;;;;;;;22.40;3.47;;;;;;;13.33;67.59;99764.38;4943074;28;120944;-91
2022/01/03 03:35:59;;;;;;;23.08;4.05;;;;;;;13.86;68.47;99826.31;4914812;28;121552;-91
2022/01/03 03:38:29;;;;;;;23.40;3.53;;;;;;;13.72;69.11;99810.69;4921948;28;119441;-92
2022/01/03 03:40:59;;;;;;;23.02;3.75;;;;;;;13.40;68.83;99761.19;4911185;28;122343;-91
2022/01/03 03:43:51;;;;;;;23.00;4.00;;;;;;;13.88;68.82;99834.09;4924661;28;119644;-93
2022/01/03 03:46:19;;;;;;;22.75;4.07;;;;;;;13.73;68.10;99812.22;4942225;28;121610;-91
2022/01/03 03:48:49;;;;;;;27.40;4.30;;;;;;;13.82;68.58;99825.78;4918283;28;121639;-91
2022/01/03 03:51:25;;;;;;;20.88;3.92;;;;;;;13.68;67.23;99802.66;4953765;28;119682;-92
2022/01/03 03:53:53;;;;;;;27.17;4.72;;;;;;;13.70;66.68;99804.91;4958043;28;119547;-92
2022/01/03 03:56:23;;;;;;;26.58;4.40;;;;;;;13.61;67.03;99792.09;4912842;28;123562;-91
2022/01/03 03:58:52;;;;;;;21.77;3.97;;;;;;;13.65;68.70;99803.66;4925042;28;120011;-91
2022/01/03 04:01:20;;;;;;;27.25;4.20;;;;;;;13.56;68.93;99772.78;4926041;28;121246;-93
2022/01/03 04:03:51;;;;;;;24.53;4.47;;;;;;;13.71;69.37;99798.16;4941805;28;119424;-91
2022/01/03 04:06:19;;;;;;;26.85;4.78;;;;;;;13.78;68.98;99805.97;4925044;28;122226;-91
2022/01/03 04:08:49;;;;;;;28.95;5.07;;;;;;;13.62;68.33;99782.59;4920359;28;123365;-90
2022/01/03 04:11:15;;;;;;;28.08;4.97;;;;;;;13.57;68.33;99777.81;4908924;28;119925;-91
2022/01/03 04:13:41;;;;;;;26.83;5.30;;;;;;;13.64;68.57;99784.84;4901094;28;121414;-91
2022/01/03 04:16:08;;;;;;;25.58;4.75;;;;;;;13.61;69.05;99774.81;4929009;28;119519;-92
2022/01/03 04:18:39;;;;;;;23.80;4.28;;;;;;;13.68;70.78;99788.88;4941889;28;119672;-91
2022/01/03 04:21:05;;;;;;;37.22;5.97;;;;;;;13.85;69.10;99797.25;4923470;28;120844;-92
2022/01/03 04:23:31;;;;;;;32.40;5.13;;;;;;;13.90;68.04;99810.28;4960542;28;121705;-91
2022/01/03 04:25:57;;;;;;;37.60;5.97;;;;;;;13.87;69.02;99799.50;4920567;28;122282;-92
2022/01/03 04:28:23;;;;;;;30.05;5.45;;;;;;;13.86;68.11;99812.53;4937011;28;122041;-91
2022/01/03 04:30:51;;;;;;;31.17;5.93;;;;;;;13.41;67.50;99740.66;4926964;28;119724;-91
2022/01/03 04:33:22;;;;;;;33.92;5.85;;;;;;;13.69;68.21;99770.34;4918320;28;121203;-91
2022/01/03 04:35:52;;;;;;;42.45;6.35;;;;;;;13.89;68.69;99800.50;4920165;28;120502;-92
2022/01/03 04:38:18;;;;;;;39.85;6.32;;;;;;;13.94;68.16;99819.06;4904482;28;119416;-93
2022/01/03 04:40:45;;;;;;;37.05;6.20;;;;;;;13.85;68.14;99813.78;4942174;28;123156;-92
2022/01/03 04:43:11;;;;;;;35.22;5.35;;;;;;;13.88;69.58;99806.53;4925354;28;121823;-92
2022/01/03 04:45:39;;;;;;;36.88;5.93;;;;;;;13.87;69.59;99805.78;4946575;28;121082;-91
2022/01/03 04:48:05;;;;;;;36.20;6.55;;;;;;;13.87;69.71;99794.00;4944887;28;119985;-92
2022/01/03 04:50:31;;;;;;;31.85;6.65;;;;;;;13.87;69.09;99800.25;4925479;28;119601;-92
2022/01/03 04:52:56;;;;;;;36.08;6.43;;;;;;;13.67;68.43;99767.34;4919009;28;122313;-92
2022/01/03 04:55:22;;;;;;;38.55;6.22;;;;;;;13.96;69.68;99810.31;4926415;28;122246;-91
2022/01/03 04:57:50;;;;;;;32.40;6.00;;;;;;;13.95;69.29;99795.03;4925150;28;120553;-90
2022/01/03 05:00:17;;;;;;;41.88;7.63;;;;;;;13.88;68.53;99792.75;4942259;28;120571;-92
2022/01/03 05:02:47;;;;;;;35.33;5.90;;;;;;;13.87;69.79;99796.75;4919779;28;120485;-91
2022/01/03 05:05:14;;;;;;;32.15;6.35;;;;;;;13.90;69.63;99799.25;4940924;28;120224;-90
2022/01/03 05:07:40;;;;;;;39.13;6.90;;;;;;;13.87;68.84;99796.75;4925426;28;121982;-91
2022/01/03 05:10:06;;;;;;;32.30;7.25;;;;;;;13.88;67.60;99801.00;4929369;28;119917;-91
2022/01/03 05:12:32;;;;;;;33.60;6.43;;;;;;;13.85;67.79;99800.00;4939685;28;124462;-92
2022/01/03 05:14:58;;;;;;;36.72;7.15;;;;;;;13.90;67.69;99799.25;4922908;28;121767;-91
2022/01/03 05:17:23;;;;;;;32.05;6.55;;;;;;;13.87;69.34;99807.78;4942742;28;120360;-90
2022/01/03 05:19:49;;;;;;;42.67;7.10;;;;;;;13.90;69.40;99802.03;4927074;28;121073;-91
2022/01/03 05:22:15;;;;;;;43.28;7.05;;;;;;;13.90;69.18;99804.03;4944789;28;119992;-90
2022/01/03 05:24:42;;;;;;;40.80;7.50;;;;;;;13.89;69.72;99806.03;4901099;28;119634;-91
2022/01/03 05:27:08;;;;;;;33.92;7.20;;;;;;;13.72;69.90;99786.66;4925696;28;121454;-92
2022/01/03 05:29:35;;;;;;;36.67;7.15;;;;;;;13.95;70.60;99806.78;4940465;28;120399;-91
2022/01/03 05:32:02;;;;;;;30.98;6.28;;;;;;;13.80;69.94;99792.47;4940089;28;120207;-91
2022/01/03 05:34:28;;;;;;;41.65;7.20;;;;;;;13.94;68.45;99799.03;4939122;28;119673;-91
2022/01/03 05:36:54;;;;;;;40.72;7.85;;;;;;;13.95;69.92;99808.81;4942055;28;120642;-91
2022/01/03 05:39:20;;;;;;;41.28;8.93;;;;;;;13.99;68.19;99812.09;4939897;28;122424;-91
2022/01/03 05:41:46;;;;;;;38.03;7.63;;;;;;;13.98;69.40;99805.84;4910567;28;120227;-93
2022/01/03 05:44:11;;;;;;;40.95;7.15;;;;;;;13.98;68.83;99803.06;4924421;28;119430;-91
2022/01/03 05:46:38;;;;;;;44.15;7.95;;;;;;;13.90;69.09;99784.72;4924351;28;122206;-91
2022/01/03 05:49:06;;;;;;;42.08;8.00;;;;;;;13.98;67.89;99803.06;4942403;28;121726;-91
2022/01/03 05:51:32;;;;;;;47.08;8.60;;;;;;;14.00;68.29;99794.31;4922930;28;120363;-91
2022/01/03 05:53:57;;;;;;;50.85;8.20;;;;;;;14.06;69.19;99792.31;4926223;28;121891;-92
2022/01/03 05:56:23;;;;;;;46.42;9.68;;;;;;;14.01;68.24;99793.06;4918841;28;119687;-91
2022/01/03 05:58:49;;;;;;;47.13;8.35;;;;;;;13.79;68.99;99774.41;4942186;28;122301;-91
2022/01/03 06:01:15;;;;;;;50.00;9.05;;;;;;;13.87;67.27;99774.69;4929835;28;122095;-92
2022/01/03 06:03:41;;;;;;;51.85;8.50;;;;;;;13.88;68.10;99782.47;4938553;28;119468;-90
2022/01/03 06:08:37;;;;;;;45.08;8.13;;;;;;;13.90;69.33;99784.72;4921896;28;122128;-91
2022/01/03 06:11:03;;;;;;;49.28;8.85;;;;;;;13.93;69.64;99789.25;4942627;28;119612;-91
2022/01/03 06:13:31;;;;;;;46.55;8.55;;;;;;;13.75;68.67;99749.09;4942351;28;119713;-92
2022/01/03 06:16:03;;;;;;;45.92;8.55;;;;;;;13.94;69.09;99788.75;4926920;28;120325;-92
2022/01/03 06:18:31;;;;;;;48.28;9.27;;;;;;;13.98;68.42;99800.31;4929641;28;119429;-92
2022/01/03 06:21:02;;;;;;;49.15;9.20;;;;;;;13.90;68.11;99790.25;4907630;28;123418;-91
2022/01/03 06:23:33;;;;;;;43.33;8.45;;;;;;;13.74;69.15;99772.41;4933511;28;120070;-91
2022/01/03 06:25:58;;;;;;;47.25;8.98;;;;;;;13.96;69.15;99786.28;4926632;28;121035;-90
2022/01/03 06:28:36;;;;;;;43.80;9.25;;;;;;;13.93;68.06;99781.72;4924401;28;121936;-92
2022/01/03 06:31:05;;;;;;;58.47;9.93;;;;;;;13.81;67.97;99778.19;4938488;28;120065;-92
2022/01/03 06:33:34;;;;;;;55.58;10.60;;;;;;;13.77;68.43;99765.88;4948298;28;120822;-91
2022/01/03 06:35:59;;;;;;;51.80;9.45;;;;;;;13.67;69.47;99761.81;4922203;28;120834;-92
2022/01/03 06:38:25;;;;;;;52.05;8.75;;;;;;;13.56;67.99;99742.50;4922835;28;122004;-92
2022/01/03 06:40:52;;;;;;;49.13;9.55;;;;;;;13.73;69.75;99770.88;4940441;28;121414;-90
2022/01/03 06:43:20;;;;;;;56.25;9.43;;;;;;;13.78;70.63;99770.16;4937574;28;120977;-92
2022/01/03 06:45:48;;;;;;;55.92;9.45;;;;;;;13.72;70.09;99758.31;4926440;28;121188;-91
2022/01/03 06:48:16;;;;;;;47.10;8.13;;;;;;;13.76;68.88;99756.88;4940264;28;121749;-90
2022/01/03 06:50:42;;;;;;;52.38;9.38;;;;;;;13.59;69.14;99727.72;4937289;28;119433;-91
2022/01/03 06:53:08;;;;;;;54.42;10.07;;;;;;;13.94;68.44;99774.97;4921460;28;120566;-91
2022/01/03 06:55:40;;;;;;;50.35;10.02;;;;;;;14.02;69.61;99795.31;4949034;28;120596;-91
2022/01/03 06:58:06;;;;;;;48.20;9.02;;;;;;;13.98;69.64;99780.28;4940155;28;120907;-91
2022/01/03 07:00:32;;;;;;;47.85;9.85;;;;;;;13.94;68.41;99774.22;4924851;28;122925;-91
2022/01/03 07:02:57;;;;;;;51.70;9.30;;;;;;;13.83;68.92;99758.41;4941830;28;119523;-92
2022/01/03 07:05:24;;;;;;;55.08;9.95;;;;;;;13.76;67.75;99745.09;4923277;28;122361;-91
2022/01/03 07:07:49;;;;;;;61.45;9.50;;;;;;;13.85;67.61;99766.91;4930377;28;120171;-91
2022/01/03 07:10:19;;;;;;;50.17;9.23;;;;;;;13.71;68.91;99743.03;4929120;28;119551;-92
2022/01/03 07:12:51;;;;;;;52.35;10.10;;;;;;;14.07;68.69;99797.34;4939063;28;120186;-90
2022/01/03 07:20:49;;;;;;;55.90;9.20;;;;;;;13.99;68.93;99809.34;4931901;28;123794;-94
2022/01/03 07:23:17;;;;;;;57.90;10.13;;;;;;;13.96;68.29;99802.81;4925690;28;119711;-90
2022/01/03 07:25:46;;;;;;;60.95;11.40;;;;;;;13.95;66.82;99798.53;4938519;28;121302;-91
2022/01/03 07:28:14;;;;;;;53.90;10.43;;;;;;;13.98;68.68;99811.34;4906491;28;121896;-91
2022/01/03 07:30:40;;;;;;;56.53;10.40;;;;;;;14.00;67.86;99803.34;4933541;28;120828;-91
2022/01/03 07:33:05;;;;;;;57.45;9.85;;;;;;;14.02;69.22;99811.88;4942147;28;122076;-91
2022/01/03 07:35:31;;;;;;;61.50;11.27;;;;;;;13.69;69.03;99765.59;4953483;28;120372;-91
2022/01/03 07:37:58;;;;;;;54.55;9.57;;;;;;;14.04;68.71;99825.91;4926360;28;119574;-91
2022/01/03 07:40:29;;;;;;;58.80;10.65;;;;;;;13.72;68.24;99778.41;4955967;28;123141;-92
2022/01/03 07:42:55;;;;;;;54.15;10.23;;;;;;;13.87;69.47;99789.22;4921949;28;119922;-90
2022/01/03 07:45:22;;;;;;;55.65;10.25;;;;;;;14.04;69.21;99812.13;4937312;28;120269;-91
2022/01/03 07:47:48;;;;;;;62.22;11.07;;;;;;;14.07;68.02;99815.88;4955764;28;121685;-90
2022/01/03 07:50:14;;;;;;;59.10;10.88;;;;;;;13.75;68.07;99773.91;4934480;28;119766;-91
2022/01/03 07:52:41;;;;;;;61.97;10.98;;;;;;;13.95;67.44;99809.56;4954590;28;120735;-90
2022/01/03 07:55:09;;;;;;;58.75;10.43;;;;;;;13.97;68.63;99817.34;4923556;28;123362;-91
2022/01/03 07:57:35;;;;;;;58.95;10.68;;;;;;;13.97;69.00;99829.13;4915360;28;119704;-91
2022/01/03 08:00:02;;;;;;;55.83;10.45;;;;;;;13.65;70.00;99778.84;4943132;28;121215;-91
2022/01/03 08:02:40;;;;;;;60.70;10.50;;;;;;;13.96;69.49;99824.09;4938456;28;119585;-92
2022/01/03 08:05:08;;;;;;;64.90;10.38;;;;;;;13.87;69.39;99811.28;4896684;28;120957;-91
2022/01/03 08:07:35;;;;;;;61.13;10.45;;;;;;;13.93;68.21;99823.09;4954360;28;121925;-90
2022/01/03 08:10:05;;;;;;;59.65;10.98;;;;;;;13.90;67.96;99824.06;4902851;28;119501;-91
2022/01/03 08:12:31;;;;;;;61.58;10.80;;;;;;;13.79;68.78;99813.00;4914922;28;122274;-91
2022/01/03 08:14:57;;;;;;;65.13;12.13;;;;;;;13.76;68.63;99814.75;4943211;28;123521;-91
2022/01/03 08:17:23;;;;;;;64.18;11.02;;;;;;;13.90;69.87;99834.34;4908379;28;120895;-91
2022/01/03 08:19:48;;;;;;;51.65;10.63;;;;;;;13.87;68.13;99825.06;4955998;28;120930;-90
2022/01/03 08:22:14;;;;;;;55.05;10.98;;;;;;;13.93;67.70;99834.09;4933575;28;122232;-92
2022/01/03 08:24:40;;;;;;;62.70;11.13;;;;;;;13.80;69.90;99795.97;4937233;28;122292;-90
2022/01/03 08:27:09;;;;;;;59.58;11.02;;;;;;;13.68;67.74;99782.63;4929689;28;122080;-90
2022/01/03 08:29:34;;;;;;;49.03;9.77;;;;;;;13.95;67.04;99823.34;4939335;28;121685;-91
2022/01/03 08:32:03;;;;;;;63.03;10.88;;;;;;;13.56;65.72;99767.28;4939036;28;119739;-90
2022/01/03 08:34:29;;;;;;;52.05;10.80;;;;;;;13.79;68.08;99796.47;4921823;28;122862;-90
2022/01/03 08:36:55;;;;;;;58.10;10.82;;;;;;;13.57;67.10;99769.53;4926796;28;120291;-91
2022/01/03 08:39:21;;;;;;;48.92;10.02;;;;;;;13.95;67.42;99826.09;4954361;28;120369;-90
2022/01/03 08:41:52;;;;;;;58.40;11.88;;;;;;;13.77;66.68;99798.97;4917863;28;121889;-91
2022/01/03 08:44:18;;;;;;;53.75;10.15;;;;;;;13.71;68.41;99784.38;4927097;28;119903;-90
2022/01/03 08:46:46;;;;;;;54.65;10.25;;;;;;;14.01;67.84;99828.91;4933182;28;119453;-91
2022/01/03 08:49:13;;;;;;;54.38;9.60;;;;;;;13.80;67.94;99786.94;4921700;28;120437;-91
2022/01/03 08:51:38;;;;;;;58.15;10.20;;;;;;;14.02;67.70;99820.13;4931060;28;119742;-91
2022/01/03 09:01:06;;;;;;;55.30;10.52;;;;;;;13.63;67.42;99781.34;862283;22;122763;-93
2022/01/03 09:03:32;;;;;;;51.25;9.63;;;;;;;13.62;67.04;99788.09;4930073;28;125073;-92
2022/01/03 09:05:58;;;;;;;49.25;9.57;;;;;;;13.56;67.74;99767.28;4912081;28;121271;-91
2022/01/03 09:08:27;;;;;;;52.72;9.90;;;;;;;13.91;66.85;99820.06;4918035;28;121800;-88
2022/01/03 09:10:56;;;;;;;50.28;10.00;;;;;;;13.60;66.63;99773.31;4953022;28;120297;-96
2022/01/03 09:13:22;;;;;;;48.83;9.32;;;;;;;13.91;66.53;99822.81;4952825;28;120106;-90
2022/01/03 09:15:49;;;;;;;50.20;10.85;;;;;;;13.92;66.86;99827.09;4913715;28;123078;-93
2022/01/03 09:18:26;;;;;;;54.15;9.02;;;;;;;13.69;67.75;99789.63;4920866;28;120234;-93
2022/01/03 09:20:54;;;;;;;52.65;9.20;;;;;;;13.65;66.16;99792.63;4919018;28;120499;-89
2022/01/03 09:23:25;;;;;;;54.08;10.45;;;;;;;13.56;66.84;99779.06;4946327;28;122596;-91
2022/01/03 09:28:52;;;;;;;57.47;10.23;;;;;;;13.89;66.47;99836.34;4942051;28;120118;-92
2022/01/03 09:31:19;;;;;;;55.38;11.63;;;;;;;13.81;65.57;99818.78;4919706;28;121276;-89
2022/01/03 09:33:45;;;;;;;57.10;10.10;;;;;;;13.77;67.42;99821.00;4950123;28;120717;-93
2022/01/03 09:36:13;;;;;;;57.08;11.13;;;;;;;13.87;66.21;99824.31;4937500;28;120536;-91
2022/01/03 09:38:38;;;;;;;64.28;11.60;;;;;;;13.66;67.25;99782.34;4920801;28;122325;-94
2022/01/03 09:41:06;;;;;;;62.58;11.13;;;;;;;13.91;68.60;99835.84;4916382;28;122770;-91
2022/01/03 09:43:50;;;;;;;57.00;12.02;;;;;;;13.88;68.45;99809.28;4954658;28;121577;-92
2022/01/03 09:46:26;;;;;;;55.25;10.40;;;;;;;13.69;67.79;99787.63;4945282;28;123031;-92
2022/01/03 09:48:54;;;;;;;57.75;10.27;;;;;;;13.85;67.62;99804.75;4946539;28;123426;-91
2022/01/03 09:51:27;;;;;;;62.40;11.13;;;;;;;13.84;68.42;99817.78;4933366;28;123906;-91
2022/01/03 09:53:59;;;;;;;63.88;10.73;;;;;;;14.02;68.07;99819.38;4918906;28;122492;-93
2022/01/03 09:56:29;;;;;;;53.00;10.40;;;;;;;13.81;67.50;99791.22;4929247;28;123378;-93
2022/01/03 09:58:57;;;;;;;70.20;11.60;;;;;;;13.81;67.93;99782.94;4945231;28;119997;-92
2022/01/03 10:01:24;;;;;;;61.83;11.38;;;;;;;13.86;67.03;99793.25;4930322;28;120320;-89
2022/01/03 10:03:51;;;;;;;65.90;12.13;;;;;;;13.98;66.53;99813.34;4945469;28;123950;-91
2022/01/03 10:06:19;;;;;;;65.43;12.35;;;;;;;14.04;64.95;99817.63;4935753;28;120012;-94
2022/01/03 10:08:48;;;;;;;61.75;11.23;;;;;;;13.77;65.83;99777.66;4929809;28;124171;-90
2022/01/03 10:11:17;;;;;;;59.63;11.00;;;;;;;13.79;67.95;99774.41;4927432;28;123075;-92
2022/01/03 10:13:44;;;;;;;56.85;11.40;;;;;;;13.78;67.89;99770.91;4948978;28;119955;-90
2022/01/03 10:16:13;;;;;;;50.00;10.57;;;;;;;14.12;66.51;99821.41;4934890;28;124318;-90
2022/01/03 10:18:39;;;;;;;57.80;10.77;;;;;;;13.69;66.83;99742.78;4913293;28;120538;-89
2022/01/03 10:21:09;;;;;;;58.20;10.90;;;;;;;14.03;66.17;99804.34;4930671;28;121613;-89
2022/01/03 10:23:37;;;;;;;56.28;10.45;;;;;;;14.13;66.77;99805.63;4951367;28;121993;-93
2022/01/03 10:26:18;;;;;;;51.80;10.18;;;;;;;14.16;66.68;99812.91;4913507;28;119825;-91
2022/01/03 10:28:44;;;;;;;55.42;10.68;;;;;;;13.89;67.49;99786.72;4953110;28;121093;-90
2022/01/03 10:31:18;;;;;;;59.55;10.60;;;;;;;14.23;66.70;99819.97;4902977;28;123322;-90
2022/01/03 10:33:44;;;;;;;63.42;11.88;;;;;;;14.20;66.63;99818.97;4935932;28;119708;-90
2022/01/03 10:36:26;;;;;;;60.65;10.70;;;;;;;14.19;65.83;99811.16;4955814;28;120480;-91
2022/01/03 10:38:52;;;;;;;60.90;11.60;;;;;;;14.18;66.41;99801.38;4927722;28;121249;-87
2022/01/03 10:41:20;;;;;;;54.28;11.85;;;;;;;14.16;65.86;99795.59;4930220;28;121546;-91
2022/01/03 10:43:49;;;;;;;53.78;11.50;;;;;;;14.07;66.29;99791.81;4927279;28;124839;-92
2022/01/03 10:46:36;;;;;;;59.88;11.43;;;;;;;14.13;66.97;99797.34;4912462;28;121243;-90
2022/01/03 10:49:06;;;;;;;53.72;10.73;;;;;;;14.18;66.34;99801.38;4936678;28;122318;-93
2022/01/03 10:51:32;;;;;;;55.80;10.68;;;;;;;14.11;65.74;99794.34;4928502;28;123210;-89
2022/01/03 10:53:58;;;;;;;61.03;11.05;;;;;;;14.06;66.69;99776.53;4952875;28;120208;-91
2022/01/03 10:56:32;;;;;;;61.95;11.68;;;;;;;14.20;65.75;99796.91;4928688;28;122951;-91
2022/01/03 10:59:02;;;;;;;53.72;10.50;;;;;;;14.17;66.50;99797.13;4931024;28;125849;-93
2022/01/03 11:01:31;;;;;;;56.88;10.63;;;;;;;14.18;66.12;99793.09;4934976;28;122512;-89
2022/01/03 11:04:01;;;;;;;47.65;10.00;;;;;;;13.83;67.08;99747.38;4943968;28;120307;-89
2022/01/03 11:11:42;;;;;;;49.42;9.93;;;;;;;14.26;65.83;99792.16;4925755;28;123079;-91
2022/01/03 11:14:12;;;;;;;60.58;11.30;;;;;;;14.33;65.88;99793.66;4918781;28;121621;-90
2022/01/03 11:16:42;;;;;;;56.75;11.40;;;;;;;14.25;67.01;99771.34;4945421;28;125100;-89
2022/01/03 11:19:09;;;;;;;52.70;10.68;;;;;;;14.33;66.87;99790.91;4942206;28;123705;-91
2022/01/03 11:21:44;;;;;;;62.85;11.32;;;;;;;14.24;66.19;99764.31;4941020;28;120126;-89
2022/01/03 11:24:12;;;;;;;60.55;10.77;;;;;;;14.00;67.38;99719.88;4948058;28;121856;-92
2022/01/03 11:26:47;;;;;;;55.78;11.38;;;;;;;13.91;67.04;99715.31;4948522;28;121843;-92
2022/01/03 11:29:14;;;;;;;60.25;12.43;;;;;;;14.32;66.34;99778.38;4955817;28;122332;-90
2022/01/03 11:31:40;;;;;;;56.03;11.77;;;;;;;14.26;65.34;99758.28;4967979;28;122557;-91
2022/01/03 11:34:08;;;;;;;60.05;10.82;;;;;;;14.28;67.06;99764.06;4955017;28;120926;-93
2022/01/03 11:36:35;;;;;;;54.50;10.88;;;;;;;13.97;65.56;99707.84;4968725;28;120721;-93
2022/01/03 11:39:05;;;;;;;57.85;10.80;;;;;;;14.26;65.63;99752.78;4958285;28;120330;-88
2022/01/03 11:41:31;;;;;;;49.33;9.88;;;;;;;14.33;66.73;99742.00;4972125;28;120944;-91
2022/01/03 11:43:57;;;;;;;57.42;11.40;;;;;;;14.30;65.21;99745.75;4952478;28;123380;-89
2022/01/03 11:46:23;;;;;;;63.08;11.18;;;;;;;14.26;65.24;99739.75;4919384;28;122349;-92
2022/01/03 11:48:51;;;;;;;57.25;10.55;;;;;;;14.30;66.58;99745.75;4952185;28;123152;-89